sensor_id;sensor_type;location;lat;lon;timestamp;P1;durP1;ratioP1;P2;durP2;ratioP2
64873;SDS011;51367;45.204;38.576;2023-03-01T06:55:55;4.50;;;3.67;;
64873;SDS011;51367;45.204;38.576;2023-03-01T06:58:25;4.78;;;4.38;;
64873;SDS011;51367;45.204;38.576;2023-03-01T07:00:51;17.70;;;7.65;;
64873;SDS011;51367;45.204;38.576;2023-03-01T07:03:17;6.32;;;5.72;;
64873;SDS011;51367;45.204;38.576;2023-03-01T07:05:43;8.98;;;6.40;;
64873;SDS011;51367;45.204;38.576;2023-03-01T07:08:10;26.48;;;11.07;;
64873;SDS011;51367;45.204;38.576;2023-03-01T07:10:36;7.45;;;5.93;;
64873;SDS011;51367;45.204;38.576;2023-03-01T07:13:02;8.68;;;6.93;;
64873;SDS011;51367;45.204;38.576;2023-03-01T07:15:28;5.78;;;5.10;;
64873;SDS011;51367;45.204;38.576;2023-03-01T07:17:54;5.47;;;3.65;;
64873;SDS011;51367;45.204;38.576;2023-03-01T07:20:21;7.07;;;4.97;;
64873;SDS011;51367;45.204;38.576;2023-03-01T07:22:50;15.77;;;13.90;;
64873;SDS011;51367;45.204;38.576;2023-03-01T07:25:17;24.25;;;6.88;;
64873;SDS011;51367;45.204;38.576;2023-03-01T07:27:43;19.05;;;11.45;;
64873;SDS011;51367;45.204;38.576;2023-03-01T07:30:09;8.00;;;5.50;;
64873;SDS011;51367;45.204;38.576;2023-03-01T07:32:35;12.60;;;6.97;;
64873;SDS011;51367;45.204;38.576;2023-03-01T07:35:01;17.15;;;8.25;;
64873;SDS011;51367;45.204;38.576;2023-03-01T07:37:28;6.28;;;4.88;;
64873;SDS011;51367;45.204;38.576;2023-03-01T07:39:54;7.97;;;4.57;;
64873;SDS011;51367;45.204;38.576;2023-03-01T07:42:19;4.15;;;3.75;;
64873;SDS011;51367;45.204;38.576;2023-03-01T07:44:45;5.13;;;4.50;;
64873;SDS011;51367;45.204;38.576;2023-03-01T07:47:11;10.68;;;6.75;;
64873;SDS011;51367;45.204;38.576;2023-03-01T07:49:37;6.47;;;3.92;;
64873;SDS011;51367;45.204;38.576;2023-03-01T07:52:03;4.25;;;3.35;;
64873;SDS011;51367;45.204;38.576;2023-03-01T07:54:29;22.30;;;9.45;;
64873;SDS011;51367;45.204;38.576;2023-03-01T07:56:56;5.18;;;3.95;;
64873;SDS011;51367;45.204;38.576;2023-03-01T07:59:22;3.33;;;3.03;;
64873;SDS011;51367;45.204;38.576;2023-03-01T08:01:55;5.00;;;4.50;;
64873;SDS011;51367;45.204;38.576;2023-03-01T08:04:22;5.28;;;4.40;;
64873;SDS011;51367;45.204;38.576;2023-03-01T08:06:54;5.05;;;4.07;;
64873;SDS011;51367;45.204;38.576;2023-03-01T08:09:20;5.10;;;4.22;;
64873;SDS011;51367;45.204;38.576;2023-03-01T08:11:46;6.28;;;3.33;;
64873;SDS011;51367;45.204;38.576;2023-03-01T08:14:12;8.65;;;3.72;;
64873;SDS011;51367;45.204;38.576;2023-03-01T08:16:38;5.40;;;4.18;;
64873;SDS011;51367;45.204;38.576;2023-03-01T08:19:09;5.05;;;4.55;;
64873;SDS011;51367;45.204;38.576;2023-03-01T08:21:37;4.45;;;3.83;;
64873;SDS011;51367;45.204;38.576;2023-03-01T08:24:04;5.57;;;4.05;;
64873;SDS011;51367;45.204;38.576;2023-03-01T08:26:31;7.78;;;5.03;;
64873;SDS011;51367;45.204;38.576;2023-03-01T08:28:59;21.15;;;11.57;;
64873;SDS011;51367;45.204;38.576;2023-03-01T08:31:26;4.30;;;3.90;;
64873;SDS011;51367;45.204;38.576;2023-03-01T08:33:56;13.05;;;3.70;;
64873;SDS011;51367;45.204;38.576;2023-03-01T08:36:24;3.80;;;3.22;;
64873;SDS011;51367;45.204;38.576;2023-03-01T08:38:54;4.72;;;3.60;;
64873;SDS011;51367;45.204;38.576;2023-03-01T08:41:21;3.83;;;2.88;;
64873;SDS011;51367;45.204;38.576;2023-03-01T08:43:47;3.92;;;3.40;;
64873;SDS011;51367;45.204;38.576;2023-03-01T08:46:13;3.42;;;3.13;;
64873;SDS011;51367;45.204;38.576;2023-03-01T08:48:40;4.30;;;3.42;;
64873;SDS011;51367;45.204;38.576;2023-03-01T08:51:15;4.05;;;3.58;;
64873;SDS011;51367;45.204;38.576;2023-03-01T08:53:42;4.47;;;3.33;;
64873;SDS011;51367;45.204;38.576;2023-03-01T08:56:09;4.30;;;3.85;;
64873;SDS011;51367;45.204;38.576;2023-03-01T08:58:35;4.93;;;4.13;;
64873;SDS011;51367;45.204;38.576;2023-03-01T09:01:09;7.05;;;3.70;;
64873;SDS011;51367;45.204;38.576;2023-03-01T09:03:36;4.50;;;3.63;;
64873;SDS011;51367;45.204;38.576;2023-03-01T09:06:02;5.28;;;4.10;;
64873;SDS011;51367;45.204;38.576;2023-03-01T09:08:29;3.35;;;3.05;;
64873;SDS011;51367;45.204;38.576;2023-03-01T09:10:56;4.18;;;3.15;;
64873;SDS011;51367;45.204;38.576;2023-03-01T09:13:22;4.57;;;3.65;;
64873;SDS011;51367;45.204;38.576;2023-03-01T09:15:50;5.80;;;3.95;;
64873;SDS011;51367;45.204;38.576;2023-03-01T09:18:16;3.75;;;3.17;;
64873;SDS011;51367;45.204;38.576;2023-03-01T09:20:42;4.25;;;3.25;;
64873;SDS011;51367;45.204;38.576;2023-03-01T09:23:08;3.80;;;3.50;;
64873;SDS011;51367;45.204;38.576;2023-03-01T09:25:34;4.22;;;3.45;;
64873;SDS011;51367;45.204;38.576;2023-03-01T09:28:00;4.85;;;3.85;;
64873;SDS011;51367;45.204;38.576;2023-03-01T09:30:26;25.73;;;4.28;;
64873;SDS011;51367;45.204;38.576;2023-03-01T09:32:52;5.15;;;4.20;;
64873;SDS011;51367;45.204;38.576;2023-03-01T09:35:18;5.78;;;5.07;;
64873;SDS011;51367;45.204;38.576;2023-03-01T09:37:45;3.95;;;3.60;;
64873;SDS011;51367;45.204;38.576;2023-03-01T09:40:15;6.75;;;3.78;;
64873;SDS011;51367;45.204;38.576;2023-03-01T09:42:49;6.85;;;4.68;;
64873;SDS011;51367;45.204;38.576;2023-03-01T09:47:52;5.07;;;3.15;;
64873;SDS011;51367;45.204;38.576;2023-03-01T09:50:19;4.93;;;3.40;;
64873;SDS011;51367;45.204;38.576;2023-03-01T09:55:17;4.07;;;3.63;;
64873;SDS011;51367;45.204;38.576;2023-03-01T09:57:53;5.18;;;3.55;;
64873;SDS011;51367;45.204;38.576;2023-03-01T10:00:44;5.13;;;3.80;;
64873;SDS011;51367;45.204;38.576;2023-03-01T10:03:16;3.53;;;3.15;;
64873;SDS011;51367;45.204;38.576;2023-03-01T10:05:57;3.60;;;3.17;;
64873;SDS011;51367;45.204;38.576;2023-03-01T10:08:28;3.33;;;3.03;;
64873;SDS011;51367;45.204;38.576;2023-03-01T10:11:02;3.60;;;3.30;;
64873;SDS011;51367;45.204;38.576;2023-03-01T10:13:32;3.83;;;3.47;;
64873;SDS011;51367;45.204;38.576;2023-03-01T10:16:11;5.90;;;3.55;;
64873;SDS011;51367;45.204;38.576;2023-03-01T10:18:42;5.78;;;3.70;;
64873;SDS011;51367;45.204;38.576;2023-03-01T10:23:44;3.28;;;2.80;;
64873;SDS011;51367;45.204;38.576;2023-03-01T10:29:08;3.13;;;2.88;;
64873;SDS011;51367;45.204;38.576;2023-03-01T10:34:11;5.13;;;4.63;;
64873;SDS011;51367;45.204;38.576;2023-03-01T10:36:41;3.97;;;3.47;;
64873;SDS011;51367;45.204;38.576;2023-03-01T10:39:18;5.20;;;3.50;;
64873;SDS011;51367;45.204;38.576;2023-03-01T10:41:58;4.35;;;3.72;;
64873;SDS011;51367;45.204;38.576;2023-03-01T10:44:39;4.95;;;3.95;;
64873;SDS011;51367;45.204;38.576;2023-03-01T10:47:39;6.00;;;4.18;;
64873;SDS011;51367;45.204;38.576;2023-03-01T10:57:39;6.65;;;4.25;;
64873;SDS011;51367;45.204;38.576;2023-03-01T11:00:19;4.68;;;4.10;;
64873;SDS011;51367;45.204;38.576;2023-03-01T11:05:24;4.80;;;4.23;;
64873;SDS011;51367;45.204;38.576;2023-03-01T11:07:54;4.28;;;3.88;;
64873;SDS011;51367;45.204;38.576;2023-03-01T11:10:23;4.97;;;3.80;;
64873;SDS011;51367;45.204;38.576;2023-03-01T11:12:50;7.93;;;4.15;;
64873;SDS011;51367;45.204;38.576;2023-03-01T11:15:25;5.45;;;4.25;;
64873;SDS011;51367;45.204;38.576;2023-03-01T11:17:53;4.82;;;4.00;;
64873;SDS011;51367;45.204;38.576;2023-03-01T11:20:24;5.47;;;4.18;;
64873;SDS011;51367;45.204;38.576;2023-03-01T11:22:55;7.57;;;4.57;;
64873;SDS011;51367;45.204;38.576;2023-03-01T11:25:25;6.07;;;5.30;;
64873;SDS011;51367;45.204;38.576;2023-03-01T11:27:53;8.30;;;6.05;;
64873;SDS011;51367;45.204;38.576;2023-03-01T11:35:53;5.82;;;4.65;;
64873;SDS011;51367;45.204;38.576;2023-03-01T11:38:22;9.90;;;6.40;;
64873;SDS011;51367;45.204;38.576;2023-03-01T11:41:33;8.38;;;6.20;;
64873;SDS011;51367;45.204;38.576;2023-03-01T11:43:57;10.27;;;6.43;;
64873;SDS011;51367;45.204;38.576;2023-03-01T11:59:47;8.50;;;6.55;;
64873;SDS011;51367;45.204;38.576;2023-03-01T12:16:24;7.65;;;5.63;;
64873;SDS011;51367;45.204;38.576;2023-03-01T12:41:04;5.57;;;5.07;;
64873;SDS011;51367;45.204;38.576;2023-03-01T12:46:52;6.88;;;6.07;;
64873;SDS011;51367;45.204;38.576;2023-03-01T12:49:33;8.40;;;5.40;;
64873;SDS011;51367;45.204;38.576;2023-03-01T12:54:35;8.07;;;5.95;;
64873;SDS011;51367;45.204;38.576;2023-03-01T12:57:03;8.80;;;6.63;;
64873;SDS011;51367;45.204;38.576;2023-03-01T13:02:41;6.13;;;5.43;;
64873;SDS011;51367;45.204;38.576;2023-03-01T13:05:19;6.97;;;5.65;;
64873;SDS011;51367;45.204;38.576;2023-03-01T13:08:36;5.70;;;5.20;;
64873;SDS011;51367;45.204;38.576;2023-03-01T13:11:15;5.78;;;5.05;;
64873;SDS011;51367;45.204;38.576;2023-03-01T13:13:44;7.43;;;6.22;;
64873;SDS011;51367;45.204;38.576;2023-03-01T13:18:47;7.13;;;5.97;;
64873;SDS011;51367;45.204;38.576;2023-03-01T13:21:13;10.27;;;5.97;;
64873;SDS011;51367;45.204;38.576;2023-03-01T13:23:55;7.35;;;6.13;;
64873;SDS011;51367;45.204;38.576;2023-03-01T13:26:21;14.60;;;12.32;;
64873;SDS011;51367;45.204;38.576;2023-03-01T13:28:48;13.90;;;10.98;;
64873;SDS011;51367;45.204;38.576;2023-03-01T13:36:10;12.70;;;8.50;;
64873;SDS011;51367;45.204;38.576;2023-03-01T13:39:02;12.88;;;8.48;;
64873;SDS011;51367;45.204;38.576;2023-03-01T13:46:49;6.15;;;5.55;;
64873;SDS011;51367;45.204;38.576;2023-03-01T13:49:18;6.30;;;5.70;;
64873;SDS011;51367;45.204;38.576;2023-03-01T13:51:49;7.53;;;5.45;;
64873;SDS011;51367;45.204;38.576;2023-03-01T13:54:16;6.65;;;5.38;;
64873;SDS011;51367;45.204;38.576;2023-03-01T13:56:54;5.68;;;4.43;;
64873;SDS011;51367;45.204;38.576;2023-03-01T13:59:21;8.07;;;5.15;;
64873;SDS011;51367;45.204;38.576;2023-03-01T14:01:55;6.97;;;5.18;;
64873;SDS011;51367;45.204;38.576;2023-03-01T14:07:09;6.80;;;5.00;;
64873;SDS011;51367;45.204;38.576;2023-03-01T14:09:42;9.10;;;6.55;;
64873;SDS011;51367;45.204;38.576;2023-03-01T14:15:02;7.80;;;7.00;;
64873;SDS011;51367;45.204;38.576;2023-03-01T14:20:20;10.85;;;6.90;;
64873;SDS011;51367;45.204;38.576;2023-03-01T14:22:50;8.10;;;7.40;;
64873;SDS011;51367;45.204;38.576;2023-03-01T14:25:20;6.22;;;5.63;;
64873;SDS011;51367;45.204;38.576;2023-03-01T14:27:51;9.77;;;6.95;;
64873;SDS011;51367;45.204;38.576;2023-03-01T14:30:31;9.38;;;6.93;;
64873;SDS011;51367;45.204;38.576;2023-03-01T14:33:17;10.63;;;5.90;;
64873;SDS011;51367;45.204;38.576;2023-03-01T14:35:57;5.97;;;5.35;;
64873;SDS011;51367;45.204;38.576;2023-03-01T14:38:41;6.97;;;5.93;;
64873;SDS011;51367;45.204;38.576;2023-03-01T14:43:57;9.30;;;5.60;;
64873;SDS011;51367;45.204;38.576;2023-03-01T14:46:30;19.48;;;5.28;;
64873;SDS011;51367;45.204;38.576;2023-03-01T14:51:29;19.13;;;4.95;;
64873;SDS011;51367;45.204;38.576;2023-03-01T14:53:55;7.28;;;6.57;;
64873;SDS011;51367;45.204;38.576;2023-03-01T14:56:22;8.35;;;6.68;;
64873;SDS011;51367;45.204;38.576;2023-03-01T14:58:51;6.55;;;5.90;;
64873;SDS011;51367;45.204;38.576;2023-03-01T15:01:19;7.30;;;6.55;;
64873;SDS011;51367;45.204;38.576;2023-03-01T15:03:46;7.40;;;6.53;;
64873;SDS011;51367;45.204;38.576;2023-03-01T15:06:20;9.60;;;5.97;;
64873;SDS011;51367;45.204;38.576;2023-03-01T15:08:49;6.00;;;5.40;;
64873;SDS011;51367;45.204;38.576;2023-03-01T15:11:22;8.27;;;6.13;;
64873;SDS011;51367;45.204;38.576;2023-03-01T15:13:56;5.05;;;4.55;;
64873;SDS011;51367;45.204;38.576;2023-03-01T15:16:27;4.70;;;3.97;;
64873;SDS011;51367;45.204;38.576;2023-03-01T15:21:27;7.55;;;3.40;;
64873;SDS011;51367;45.204;38.576;2023-03-01T15:24:04;7.13;;;3.28;;
64873;SDS011;51367;45.204;38.576;2023-03-01T15:26:57;3.78;;;2.95;;
64873;SDS011;51367;45.204;38.576;2023-03-01T15:29:32;4.72;;;4.20;;
64873;SDS011;51367;45.204;38.576;2023-03-01T15:32:24;2.78;;;2.58;;
64873;SDS011;51367;45.204;38.576;2023-03-01T15:34:50;3.60;;;2.88;;
64873;SDS011;51367;45.204;38.576;2023-03-01T15:37:38;4.18;;;3.88;;
64873;SDS011;51367;45.204;38.576;2023-03-01T15:43:36;3.35;;;3.05;;
64873;SDS011;51367;45.204;38.576;2023-03-01T15:46:04;3.92;;;3.53;;
64873;SDS011;51367;45.204;38.576;2023-03-01T15:48:30;5.65;;;4.60;;
64873;SDS011;51367;45.204;38.576;2023-03-01T15:50:57;4.93;;;4.13;;
64873;SDS011;51367;45.204;38.576;2023-03-01T15:53:24;45.90;;;3.47;;
64873;SDS011;51367;45.204;38.576;2023-03-01T15:55:53;4.13;;;3.83;;
64873;SDS011;51367;45.204;38.576;2023-03-01T15:58:20;4.85;;;3.83;;
64873;SDS011;51367;45.204;38.576;2023-03-01T16:00:48;7.63;;;4.00;;
64873;SDS011;51367;45.204;38.576;2023-03-01T16:05:50;5.75;;;5.18;;
64873;SDS011;51367;45.204;38.576;2023-03-01T16:08:17;6.60;;;3.80;;
64873;SDS011;51367;45.204;38.576;2023-03-01T16:10:44;6.45;;;4.60;;
64873;SDS011;51367;45.204;38.576;2023-03-01T16:13:11;4.10;;;3.75;;
64873;SDS011;51367;45.204;38.576;2023-03-01T16:15:38;4.80;;;4.32;;
64873;SDS011;51367;45.204;38.576;2023-03-01T16:18:05;9.20;;;3.95;;
64873;SDS011;51367;45.204;38.576;2023-03-01T16:20:33;4.22;;;3.90;;
64873;SDS011;51367;45.204;38.576;2023-03-01T16:22:59;3.30;;;3.05;;
64873;SDS011;51367;45.204;38.576;2023-03-01T16:25:27;8.60;;;4.78;;
64873;SDS011;51367;45.204;38.576;2023-03-01T16:27:54;4.47;;;3.05;;
64873;SDS011;51367;45.204;38.576;2023-03-01T16:30:21;6.32;;;5.28;;
64873;SDS011;51367;45.204;38.576;2023-03-01T16:32:48;4.80;;;4.15;;
64873;SDS011;51367;45.204;38.576;2023-03-01T16:35:16;4.82;;;4.00;;
64873;SDS011;51367;45.204;38.576;2023-03-01T16:37:44;4.07;;;3.67;;
64873;SDS011;51367;45.204;38.576;2023-03-01T16:40:17;4.03;;;3.53;;
64873;SDS011;51367;45.204;38.576;2023-03-01T16:42:49;3.40;;;3.10;;
64873;SDS011;51367;45.204;38.576;2023-03-01T16:45:15;3.95;;;3.65;;
64873;SDS011;51367;45.204;38.576;2023-03-01T16:47:42;4.63;;;3.15;;
64873;SDS011;51367;45.204;38.576;2023-03-01T16:50:08;5.38;;;3.50;;
64873;SDS011;51367;45.204;38.576;2023-03-01T16:52:35;3.13;;;2.58;;
64873;SDS011;51367;45.204;38.576;2023-03-01T16:55:02;4.25;;;3.40;;
64873;SDS011;51367;45.204;38.576;2023-03-01T16:57:30;4.22;;;3.83;;
64873;SDS011;51367;45.204;38.576;2023-03-01T16:59:56;4.43;;;4.05;;
64873;SDS011;51367;45.204;38.576;2023-03-01T17:02:22;4.40;;;3.45;;
64873;SDS011;51367;45.204;38.576;2023-03-01T17:04:51;2.75;;;2.55;;
64873;SDS011;51367;45.204;38.576;2023-03-01T17:07:18;3.53;;;3.13;;
64873;SDS011;51367;45.204;38.576;2023-03-01T17:09:44;2.45;;;2.25;;
64873;SDS011;51367;45.204;38.576;2023-03-01T17:12:14;2.42;;;2.28;;
64873;SDS011;51367;45.204;38.576;2023-03-01T17:14:40;2.75;;;2.55;;
64873;SDS011;51367;45.204;38.576;2023-03-01T17:17:07;2.67;;;2.47;;
64873;SDS011;51367;45.204;38.576;2023-03-01T17:19:34;4.03;;;2.83;;
64873;SDS011;51367;45.204;38.576;2023-03-01T17:22:03;2.63;;;2.42;;
64873;SDS011;51367;45.204;38.576;2023-03-01T17:24:32;6.25;;;2.47;;
64873;SDS011;51367;45.204;38.576;2023-03-01T17:26:59;2.38;;;2.15;;
64873;SDS011;51367;45.204;38.576;2023-03-01T17:29:25;3.28;;;2.97;;
64873;SDS011;51367;45.204;38.576;2023-03-01T17:31:51;4.38;;;3.97;;
64873;SDS011;51367;45.204;38.576;2023-03-01T17:34:19;7.35;;;4.43;;
64873;SDS011;51367;45.204;38.576;2023-03-01T17:36:45;2.97;;;2.70;;
64873;SDS011;51367;45.204;38.576;2023-03-01T17:39:12;3.42;;;3.13;;
64873;SDS011;51367;45.204;38.576;2023-03-01T17:41:38;32.70;;;3.17;;
64873;SDS011;51367;45.204;38.576;2023-03-01T17:44:03;3.65;;;3.15;;
64873;SDS011;51367;45.204;38.576;2023-03-01T17:46:29;4.30;;;3.90;;
64873;SDS011;51367;45.204;38.576;2023-03-01T17:48:55;3.75;;;3.35;;
64873;SDS011;51367;45.204;38.576;2023-03-01T17:51:21;7.63;;;5.55;;
64873;SDS011;51367;45.204;38.576;2023-03-01T17:53:47;4.50;;;3.92;;
64873;SDS011;51367;45.204;38.576;2023-03-01T17:56:13;4.43;;;3.28;;
64873;SDS011;51367;45.204;38.576;2023-03-01T17:58:40;4.78;;;3.53;;
64873;SDS011;51367;45.204;38.576;2023-03-01T18:01:10;3.58;;;3.28;;
64873;SDS011;51367;45.204;38.576;2023-03-01T18:03:38;4.20;;;3.83;;
64873;SDS011;51367;45.204;38.576;2023-03-01T18:06:12;17.60;;;2.75;;
64873;SDS011;51367;45.204;38.576;2023-03-01T18:08:39;5.78;;;3.63;;
64873;SDS011;51367;45.204;38.576;2023-03-01T18:11:06;2.97;;;2.78;;
64873;SDS011;51367;45.204;38.576;2023-03-01T18:13:33;4.15;;;3.50;;
64873;SDS011;51367;45.204;38.576;2023-03-01T18:16:01;3.45;;;3.15;;
64873;SDS011;51367;45.204;38.576;2023-03-01T18:18:29;35.92;;;4.38;;
64873;SDS011;51367;45.204;38.576;2023-03-01T18:20:56;3.67;;;3.38;;
64873;SDS011;51367;45.204;38.576;2023-03-01T18:23:26;8.77;;;3.47;;
64873;SDS011;51367;45.204;38.576;2023-03-01T18:26:03;4.88;;;4.20;;
64873;SDS011;51367;45.204;38.576;2023-03-01T18:28:31;3.05;;;2.75;;
64873;SDS011;51367;45.204;38.576;2023-03-01T18:30:58;4.03;;;3.45;;
64873;SDS011;51367;45.204;38.576;2023-03-01T18:33:27;24.42;;;3.50;;
64873;SDS011;51367;45.204;38.576;2023-03-01T18:35:53;3.97;;;3.45;;
64873;SDS011;51367;45.204;38.576;2023-03-01T18:38:19;4.18;;;2.30;;
64873;SDS011;51367;45.204;38.576;2023-03-01T18:40:45;2.88;;;2.63;;
64873;SDS011;51367;45.204;38.576;2023-03-01T18:43:11;3.78;;;3.15;;
64873;SDS011;51367;45.204;38.576;2023-03-01T18:45:37;4.88;;;3.97;;
64873;SDS011;51367;45.204;38.576;2023-03-01T18:48:03;5.57;;;4.60;;
64873;SDS011;51367;45.204;38.576;2023-03-01T18:50:29;3.35;;;3.15;;
64873;SDS011;51367;45.204;38.576;2023-03-01T18:52:56;3.45;;;2.85;;
64873;SDS011;51367;45.204;38.576;2023-03-01T18:55:23;2.65;;;2.47;;
64873;SDS011;51367;45.204;38.576;2023-03-01T18:57:49;5.93;;;3.38;;
64873;SDS011;51367;45.204;38.576;2023-03-01T19:00:15;4.03;;;2.72;;
64873;SDS011;51367;45.204;38.576;2023-03-01T19:02:42;2.35;;;2.20;;
64873;SDS011;51367;45.204;38.576;2023-03-01T19:05:08;3.17;;;2.88;;
64873;SDS011;51367;45.204;38.576;2023-03-01T19:07:34;4.90;;;3.17;;
64873;SDS011;51367;45.204;38.576;2023-03-01T19:10:00;3.28;;;3.05;;
64873;SDS011;51367;45.204;38.576;2023-03-01T19:12:26;3.83;;;3.53;;
64873;SDS011;51367;45.204;38.576;2023-03-01T19:14:53;4.20;;;3.80;;
64873;SDS011;51367;45.204;38.576;2023-03-01T19:17:22;2.08;;;1.90;;
64873;SDS011;51367;45.204;38.576;2023-03-01T19:19:54;3.05;;;2.80;;
64873;SDS011;51367;45.204;38.576;2023-03-01T19:22:25;3.20;;;2.58;;
64873;SDS011;51367;45.204;38.576;2023-03-01T19:24:51;3.92;;;2.85;;
64873;SDS011;51367;45.204;38.576;2023-03-01T19:27:18;3.15;;;2.85;;
64873;SDS011;51367;45.204;38.576;2023-03-01T19:29:44;5.25;;;2.92;;
64873;SDS011;51367;45.204;38.576;2023-03-01T19:32:10;4.40;;;2.67;;
64873;SDS011;51367;45.204;38.576;2023-03-01T19:34:36;2.35;;;2.25;;
64873;SDS011;51367;45.204;38.576;2023-03-01T19:37:03;3.25;;;2.97;;
64873;SDS011;51367;45.204;38.576;2023-03-01T19:39:29;3.03;;;2.70;;
64873;SDS011;51367;45.204;38.576;2023-03-01T19:41:55;9.18;;;2.13;;
64873;SDS011;51367;45.204;38.576;2023-03-01T19:44:21;18.73;;;2.45;;
64873;SDS011;51367;45.204;38.576;2023-03-01T19:46:51;3.55;;;2.53;;
64873;SDS011;51367;45.204;38.576;2023-03-01T19:49:17;4.07;;;2.78;;
64873;SDS011;51367;45.204;38.576;2023-03-01T19:51:43;2.35;;;2.15;;
64873;SDS011;51367;45.204;38.576;2023-03-01T19:54:09;3.65;;;2.28;;
64873;SDS011;51367;45.204;38.576;2023-03-01T19:56:37;1.52;;;1.42;;
64873;SDS011;51367;45.204;38.576;2023-03-01T19:59:03;1.73;;;1.48;;
64873;SDS011;51367;45.204;38.576;2023-03-01T20:01:31;2.58;;;2.38;;
64873;SDS011;51367;45.204;38.576;2023-03-01T20:03:59;1.98;;;1.88;;
64873;SDS011;51367;45.204;38.576;2023-03-01T20:06:25;1.92;;;1.80;;
64873;SDS011;51367;45.204;38.576;2023-03-01T20:08:53;1.75;;;1.65;;
64873;SDS011;51367;45.204;38.576;2023-03-01T20:11:19;1.63;;;1.52;;
64873;SDS011;51367;45.204;38.576;2023-03-01T20:13:46;2.13;;;2.00;;
64873;SDS011;51367;45.204;38.576;2023-03-01T20:16:15;2.13;;;1.98;;
64873;SDS011;51367;45.204;38.576;2023-03-01T20:18:43;25.63;;;2.55;;
64873;SDS011;51367;45.204;38.576;2023-03-01T20:21:09;1.23;;;1.13;;
64873;SDS011;51367;45.204;38.576;2023-03-01T20:23:36;2.25;;;2.00;;
64873;SDS011;51367;45.204;38.576;2023-03-01T20:26:03;2.30;;;2.10;;
64873;SDS011;51367;45.204;38.576;2023-03-01T20:28:32;1.10;;;1.10;;
64873;SDS011;51367;45.204;38.576;2023-03-01T20:31:03;1.85;;;1.75;;
64873;SDS011;51367;45.204;38.576;2023-03-01T20:33:30;0.82;;;0.80;;
64873;SDS011;51367;45.204;38.576;2023-03-01T20:35:57;1.65;;;1.55;;
64873;SDS011;51367;45.204;38.576;2023-03-01T20:38:23;2.00;;;1.90;;
64873;SDS011;51367;45.204;38.576;2023-03-01T20:40:55;4.20;;;3.83;;
64873;SDS011;51367;45.204;38.576;2023-03-01T20:43:26;3.30;;;2.63;;
64873;SDS011;51367;45.204;38.576;2023-03-01T20:45:52;6.32;;;3.55;;
64873;SDS011;51367;45.204;38.576;2023-03-01T20:48:19;2.03;;;1.92;;
64873;SDS011;51367;45.204;38.576;2023-03-01T20:50:45;2.42;;;1.83;;
64873;SDS011;51367;45.204;38.576;2023-03-01T20:53:11;2.97;;;2.42;;
64873;SDS011;51367;45.204;38.576;2023-03-01T20:55:37;3.95;;;3.58;;
64873;SDS011;51367;45.204;38.576;2023-03-01T20:58:03;3.33;;;3.10;;
64873;SDS011;51367;45.204;38.576;2023-03-01T21:00:29;4.88;;;3.95;;
64873;SDS011;51367;45.204;38.576;2023-03-01T21:02:55;2.15;;;1.92;;
64873;SDS011;51367;45.204;38.576;2023-03-01T21:05:21;2.17;;;1.98;;
64873;SDS011;51367;45.204;38.576;2023-03-01T21:07:48;4.13;;;3.22;;
64873;SDS011;51367;45.204;38.576;2023-03-01T21:10:15;2.80;;;2.60;;
64873;SDS011;51367;45.204;38.576;2023-03-01T21:12:41;4.28;;;3.50;;
64873;SDS011;51367;45.204;38.576;2023-03-01T21:15:07;3.08;;;2.75;;
64873;SDS011;51367;45.204;38.576;2023-03-01T21:17:33;7.97;;;2.15;;
64873;SDS011;51367;45.204;38.576;2023-03-01T21:19:59;2.65;;;2.45;;
64873;SDS011;51367;45.204;38.576;2023-03-01T21:22:25;3.75;;;2.92;;
64873;SDS011;51367;45.204;38.576;2023-03-01T21:24:53;5.13;;;3.75;;
64873;SDS011;51367;45.204;38.576;2023-03-01T21:27:19;1.90;;;1.80;;
64873;SDS011;51367;45.204;38.576;2023-03-01T21:29:45;9.20;;;2.58;;
64873;SDS011;51367;45.204;38.576;2023-03-01T21:32:11;2.15;;;2.05;;
64873;SDS011;51367;45.204;38.576;2023-03-01T21:34:38;2.28;;;2.08;;
64873;SDS011;51367;45.204;38.576;2023-03-01T21:37:05;3.63;;;2.28;;
64873;SDS011;51367;45.204;38.576;2023-03-01T21:39:33;2.92;;;2.72;;
64873;SDS011;51367;45.204;38.576;2023-03-01T21:42:00;7.43;;;3.13;;
64873;SDS011;51367;45.204;38.576;2023-03-01T21:44:28;4.57;;;3.53;;
64873;SDS011;51367;45.204;38.576;2023-03-01T21:46:55;3.92;;;3.55;;
64873;SDS011;51367;45.204;38.576;2023-03-01T21:49:22;3.50;;;3.05;;
64873;SDS011;51367;45.204;38.576;2023-03-01T21:51:48;3.30;;;3.00;;
64873;SDS011;51367;45.204;38.576;2023-03-01T21:54:14;4.53;;;3.15;;
64873;SDS011;51367;45.204;38.576;2023-03-01T21:56:42;2.67;;;2.47;;
64873;SDS011;51367;45.204;38.576;2023-03-01T21:59:19;3.58;;;2.63;;
64873;SDS011;51367;45.204;38.576;2023-03-01T22:01:46;4.93;;;3.20;;
64873;SDS011;51367;45.204;38.576;2023-03-01T22:04:13;3.17;;;2.88;;
64873;SDS011;51367;45.204;38.576;2023-03-01T22:06:41;5.60;;;3.47;;
64873;SDS011;51367;45.204;38.576;2023-03-01T22:09:10;2.53;;;2.33;;
64873;SDS011;51367;45.204;38.576;2023-03-01T22:11:39;6.80;;;2.75;;
64873;SDS011;51367;45.204;38.576;2023-03-01T22:14:07;3.83;;;3.40;;
64873;SDS011;51367;45.204;38.576;2023-03-01T22:16:36;4.30;;;3.83;;
64873;SDS011;51367;45.204;38.576;2023-03-01T22:19:04;12.00;;;3.63;;
64873;SDS011;51367;45.204;38.576;2023-03-01T22:21:32;1.90;;;1.80;;
64873;SDS011;51367;45.204;38.576;2023-03-01T22:23:58;2.20;;;2.10;;
64873;SDS011;51367;45.204;38.576;2023-03-01T22:26:26;3.03;;;2.75;;
64873;SDS011;51367;45.204;38.576;2023-03-01T22:28:54;2.97;;;2.78;;
64873;SDS011;51367;45.204;38.576;2023-03-01T22:31:23;2.42;;;1.80;;
64873;SDS011;51367;45.204;38.576;2023-03-01T22:33:49;2.63;;;2.45;;
64873;SDS011;51367;45.204;38.576;2023-03-01T22:36:16;18.88;;;4.78;;
64873;SDS011;51367;45.204;38.576;2023-03-01T22:38:42;1.98;;;1.88;;
64873;SDS011;51367;45.204;38.576;2023-03-01T22:41:08;3.38;;;3.13;;
64873;SDS011;51367;45.204;38.576;2023-03-01T22:43:34;3.13;;;2.78;;
64873;SDS011;51367;45.204;38.576;2023-03-01T22:46:08;2.13;;;2.03;;
64873;SDS011;51367;45.204;38.576;2023-03-01T22:48:38;2.25;;;2.05;;
64873;SDS011;51367;45.204;38.576;2023-03-01T22:51:04;3.30;;;3.10;;
64873;SDS011;51367;45.204;38.576;2023-03-01T22:53:30;2.20;;;1.63;;
64873;SDS011;51367;45.204;38.576;2023-03-01T22:55:57;4.22;;;2.40;;
64873;SDS011;51367;45.204;38.576;2023-03-01T22:58:22;2.97;;;2.40;;
64873;SDS011;51367;45.204;38.576;2023-03-01T23:00:48;6.15;;;1.90;;
64873;SDS011;51367;45.204;38.576;2023-03-01T23:03:14;3.05;;;2.70;;
64873;SDS011;51367;45.204;38.576;2023-03-01T23:05:41;2.08;;;1.85;;
64873;SDS011;51367;45.204;38.576;2023-03-01T23:08:07;2.38;;;2.17;;
64873;SDS011;51367;45.204;38.576;2023-03-01T23:10:33;3.55;;;3.30;;
64873;SDS011;51367;45.204;38.576;2023-03-01T23:12:59;7.35;;;4.28;;
64873;SDS011;51367;45.204;38.576;2023-03-01T23:15:25;4.20;;;3.65;;
64873;SDS011;51367;45.204;38.576;2023-03-01T23:17:50;2.03;;;1.65;;
64873;SDS011;51367;45.204;38.576;2023-03-01T23:20:16;3.88;;;3.50;;
64873;SDS011;51367;45.204;38.576;2023-03-01T23:22:42;1.95;;;1.77;;
64873;SDS011;51367;45.204;38.576;2023-03-01T23:25:09;2.20;;;1.83;;
64873;SDS011;51367;45.204;38.576;2023-03-01T23:27:37;2.97;;;2.78;;
64873;SDS011;51367;45.204;38.576;2023-03-01T23:30:04;8.15;;;2.90;;
64873;SDS011;51367;45.204;38.576;2023-03-01T23:32:32;1.05;;;1.00;;
64873;SDS011;51367;45.204;38.576;2023-03-01T23:35:05;1.95;;;1.75;;
64873;SDS011;51367;45.204;38.576;2023-03-01T23:37:32;2.67;;;2.47;;
64873;SDS011;51367;45.204;38.576;2023-03-01T23:39:58;1.88;;;1.77;;